sensor_id;sensor_type;location;lat;lon;timestamp;P1;durP1;ratioP1;P2;durP2;ratioP2
10509;SDS011;5303;53.266;10.410;2023-05-24T00:01:35;21.93;;;5.87;;
10509;SDS011;5303;53.266;10.410;2023-05-24T00:04:01;17.50;;;5.57;;
10509;SDS011;5303;53.266;10.410;2023-05-24T00:06:27;23.20;;;6.07;;
10509;SDS011;5303;53.266;10.410;2023-05-24T00:08:53;21.20;;;6.50;;
10509;SDS011;5303;53.266;10.410;2023-05-24T00:11:18;24.33;;;6.10;;
10509;SDS011;5303;53.266;10.410;2023-05-24T00:13:44;23.10;;;6.57;;
10509;SDS011;5303;53.266;10.410;2023-05-24T00:16:10;19.60;;;6.20;;
10509;SDS011;5303;53.266;10.410;2023-05-24T00:18:35;18.03;;;6.27;;
10509;SDS011;5303;53.266;10.410;2023-05-24T00:21:08;24.77;;;6.50;;
10509;SDS011;5303;53.266;10.410;2023-05-24T00:23:34;23.30;;;6.53;;
10509;SDS011;5303;53.266;10.410;2023-05-24T00:26:01;29.00;;;6.43;;
10509;SDS011;5303;53.266;10.410;2023-05-24T00:28:26;26.03;;;7.23;;
10509;SDS011;5303;53.266;10.410;2023-05-24T00:30:52;25.73;;;6.33;;
10509;SDS011;5303;53.266;10.410;2023-05-24T00:33:17;24.97;;;7.23;;
10509;SDS011;5303;53.266;10.410;2023-05-24T00:35:42;25.77;;;6.60;;
10509;SDS011;5303;53.266;10.410;2023-05-24T00:38:08;24.17;;;6.40;;
10509;SDS011;5303;53.266;10.410;2023-05-24T00:40:33;17.63;;;6.53;;
10509;SDS011;5303;53.266;10.410;2023-05-24T00:42:58;22.87;;;6.27;;
10509;SDS011;5303;53.266;10.410;2023-05-24T00:45:24;22.13;;;6.77;;
10509;SDS011;5303;53.266;10.410;2023-05-24T00:47:49;19.30;;;7.10;;
10509;SDS011;5303;53.266;10.410;2023-05-24T00:50:14;25.17;;;7.37;;
10509;SDS011;5303;53.266;10.410;2023-05-24T00:52:41;27.03;;;6.33;;
10509;SDS011;5303;53.266;10.410;2023-05-24T00:55:07;24.67;;;6.43;;
10509;SDS011;5303;53.266;10.410;2023-05-24T00:57:34;27.53;;;6.70;;
10509;SDS011;5303;53.266;10.410;2023-05-24T01:00:00;24.13;;;6.00;;
10509;SDS011;5303;53.266;10.410;2023-05-24T01:02:26;25.53;;;6.83;;
10509;SDS011;5303;53.266;10.410;2023-05-24T01:04:51;20.83;;;6.03;;
10509;SDS011;5303;53.266;10.410;2023-05-24T01:10:15;24.40;;;7.53;;
10509;SDS011;5303;53.266;10.410;2023-05-24T01:15:53;23.20;;;6.13;;
10509;SDS011;5303;53.266;10.410;2023-05-24T01:18:32;21.70;;;6.33;;
10509;SDS011;5303;53.266;10.410;2023-05-24T01:21:31;22.77;;;6.73;;
10509;SDS011;5303;53.266;10.410;2023-05-24T01:29:23;28.60;;;7.07;;
10509;SDS011;5303;53.266;10.410;2023-05-24T01:31:50;26.23;;;7.53;;
10509;SDS011;5303;53.266;10.410;2023-05-24T01:34:16;25.57;;;6.57;;
10509;SDS011;5303;53.266;10.410;2023-05-24T01:36:41;25.97;;;7.13;;
10509;SDS011;5303;53.266;10.410;2023-05-24T01:39:06;23.97;;;6.97;;
10509;SDS011;5303;53.266;10.410;2023-05-24T01:46:53;24.50;;;6.73;;
10509;SDS011;5303;53.266;10.410;2023-05-24T01:49:26;20.93;;;6.43;;
10509;SDS011;5303;53.266;10.410;2023-05-24T01:54:22;26.90;;;6.73;;
10509;SDS011;5303;53.266;10.410;2023-05-24T01:56:50;28.13;;;7.50;;
10509;SDS011;5303;53.266;10.410;2023-05-24T01:59:17;24.30;;;6.67;;
10509;SDS011;5303;53.266;10.410;2023-05-24T02:01:43;21.43;;;6.03;;
10509;SDS011;5303;53.266;10.410;2023-05-24T02:04:09;27.17;;;6.67;;
10509;SDS011;5303;53.266;10.410;2023-05-24T02:06:35;24.77;;;6.63;;
10509;SDS011;5303;53.266;10.410;2023-05-24T02:09:02;25.37;;;6.80;;
10509;SDS011;5303;53.266;10.410;2023-05-24T02:11:27;23.77;;;6.90;;
10509;SDS011;5303;53.266;10.410;2023-05-24T02:13:52;30.97;;;7.30;;
10509;SDS011;5303;53.266;10.410;2023-05-24T02:16:18;21.43;;;6.53;;
10509;SDS011;5303;53.266;10.410;2023-05-24T02:18:43;25.80;;;7.70;;
10509;SDS011;5303;53.266;10.410;2023-05-24T02:21:10;29.37;;;7.60;;
10509;SDS011;5303;53.266;10.410;2023-05-24T02:23:36;23.27;;;6.80;;
10509;SDS011;5303;53.266;10.410;2023-05-24T02:26:02;20.90;;;6.90;;
10509;SDS011;5303;53.266;10.410;2023-05-24T02:28:27;26.83;;;6.87;;
10509;SDS011;5303;53.266;10.410;2023-05-24T02:30:56;23.60;;;6.53;;
10509;SDS011;5303;53.266;10.410;2023-05-24T02:33:21;27.00;;;7.43;;
10509;SDS011;5303;53.266;10.410;2023-05-24T02:35:49;26.50;;;7.57;;
10509;SDS011;5303;53.266;10.410;2023-05-24T02:38:14;19.27;;;5.70;;
10509;SDS011;5303;53.266;10.410;2023-05-24T02:40:40;26.13;;;7.70;;
10509;SDS011;5303;53.266;10.410;2023-05-24T02:43:05;30.30;;;7.20;;
10509;SDS011;5303;53.266;10.410;2023-05-24T02:45:30;34.87;;;7.87;;
10509;SDS011;5303;53.266;10.410;2023-05-24T02:47:56;22.60;;;6.83;;
10509;SDS011;5303;53.266;10.410;2023-05-24T02:50:21;33.63;;;7.03;;
10509;SDS011;5303;53.266;10.410;2023-05-24T02:52:46;21.03;;;6.97;;
10509;SDS011;5303;53.266;10.410;2023-05-24T02:55:12;26.67;;;7.17;;
10509;SDS011;5303;53.266;10.410;2023-05-24T02:57:37;28.73;;;7.23;;
10509;SDS011;5303;53.266;10.410;2023-05-24T03:00:03;33.27;;;7.67;;
10509;SDS011;5303;53.266;10.410;2023-05-24T03:02:32;19.73;;;6.50;;
10509;SDS011;5303;53.266;10.410;2023-05-24T03:04:58;23.43;;;6.67;;
10509;SDS011;5303;53.266;10.410;2023-05-24T03:07:23;25.03;;;7.07;;
10509;SDS011;5303;53.266;10.410;2023-05-24T03:09:48;26.63;;;7.17;;
10509;SDS011;5303;53.266;10.410;2023-05-24T03:12:14;22.07;;;7.07;;
10509;SDS011;5303;53.266;10.410;2023-05-24T03:14:40;25.13;;;7.73;;
10509;SDS011;5303;53.266;10.410;2023-05-24T03:17:05;23.50;;;7.77;;
10509;SDS011;5303;53.266;10.410;2023-05-24T03:19:30;26.33;;;7.40;;
10509;SDS011;5303;53.266;10.410;2023-05-24T03:21:56;23.50;;;6.77;;
10509;SDS011;5303;53.266;10.410;2023-05-24T03:24:21;21.83;;;6.90;;
10509;SDS011;5303;53.266;10.410;2023-05-24T03:26:46;22.83;;;7.87;;
10509;SDS011;5303;53.266;10.410;2023-05-24T03:29:11;24.60;;;8.20;;
10509;SDS011;5303;53.266;10.410;2023-05-24T03:31:37;25.83;;;6.63;;
10509;SDS011;5303;53.266;10.410;2023-05-24T03:34:02;18.07;;;6.20;;
10509;SDS011;5303;53.266;10.410;2023-05-24T03:36:27;25.47;;;7.43;;
10509;SDS011;5303;53.266;10.410;2023-05-24T03:38:53;28.53;;;7.80;;
10509;SDS011;5303;53.266;10.410;2023-05-24T03:41:19;28.77;;;7.70;;
10509;SDS011;5303;53.266;10.410;2023-05-24T03:43:44;23.33;;;7.53;;
10509;SDS011;5303;53.266;10.410;2023-05-24T03:46:09;21.97;;;6.70;;
10509;SDS011;5303;53.266;10.410;2023-05-24T03:48:35;24.80;;;7.03;;
10509;SDS011;5303;53.266;10.410;2023-05-24T03:51:00;21.23;;;7.03;;
10509;SDS011;5303;53.266;10.410;2023-05-24T03:53:25;26.40;;;7.50;;
10509;SDS011;5303;53.266;10.410;2023-05-24T03:55:51;24.53;;;7.47;;
10509;SDS011;5303;53.266;10.410;2023-05-24T03:58:16;24.80;;;7.53;;
10509;SDS011;5303;53.266;10.410;2023-05-24T04:00:41;22.17;;;7.10;;
10509;SDS011;5303;53.266;10.410;2023-05-24T04:03:07;22.80;;;6.87;;
10509;SDS011;5303;53.266;10.410;2023-05-24T04:05:33;29.97;;;6.87;;
10509;SDS011;5303;53.266;10.410;2023-05-24T04:07:58;27.20;;;7.40;;
10509;SDS011;5303;53.266;10.410;2023-05-24T04:10:24;27.30;;;7.80;;
10509;SDS011;5303;53.266;10.410;2023-05-24T04:12:49;25.97;;;7.73;;
10509;SDS011;5303;53.266;10.410;2023-05-24T04:15:14;24.20;;;7.13;;
10509;SDS011;5303;53.266;10.410;2023-05-24T04:17:43;20.90;;;6.77;;
10509;SDS011;5303;53.266;10.410;2023-05-24T04:20:09;19.83;;;6.73;;
10509;SDS011;5303;53.266;10.410;2023-05-24T04:22:36;17.53;;;7.10;;
10509;SDS011;5303;53.266;10.410;2023-05-24T04:25:02;29.30;;;7.47;;
10509;SDS011;5303;53.266;10.410;2023-05-24T04:27:28;21.57;;;6.60;;
10509;SDS011;5303;53.266;10.410;2023-05-24T04:29:54;20.97;;;6.57;;
10509;SDS011;5303;53.266;10.410;2023-05-24T04:32:20;25.90;;;7.13;;
10509;SDS011;5303;53.266;10.410;2023-05-24T04:34:45;24.37;;;7.13;;
10509;SDS011;5303;53.266;10.410;2023-05-24T04:37:11;25.90;;;6.37;;
10509;SDS011;5303;53.266;10.410;2023-05-24T04:39:37;27.87;;;7.80;;
10509;SDS011;5303;53.266;10.410;2023-05-24T04:42:03;23.47;;;6.60;;
10509;SDS011;5303;53.266;10.410;2023-05-24T04:44:28;22.07;;;7.10;;
10509;SDS011;5303;53.266;10.410;2023-05-24T04:46:54;22.53;;;7.40;;
10509;SDS011;5303;53.266;10.410;2023-05-24T04:49:19;18.63;;;6.77;;
10509;SDS011;5303;53.266;10.410;2023-05-24T04:51:47;28.90;;;7.47;;
10509;SDS011;5303;53.266;10.410;2023-05-24T04:54:12;24.43;;;7.07;;
10509;SDS011;5303;53.266;10.410;2023-05-24T04:56:38;20.83;;;7.13;;
10509;SDS011;5303;53.266;10.410;2023-05-24T04:59:04;26.27;;;7.43;;
10509;SDS011;5303;53.266;10.410;2023-05-24T05:01:30;22.50;;;7.17;;
10509;SDS011;5303;53.266;10.410;2023-05-24T05:03:56;31.43;;;7.30;;
10509;SDS011;5303;53.266;10.410;2023-05-24T05:06:21;20.47;;;6.40;;
10509;SDS011;5303;53.266;10.410;2023-05-24T05:08:46;26.10;;;7.33;;
10509;SDS011;5303;53.266;10.410;2023-05-24T05:11:12;24.37;;;7.13;;
10509;SDS011;5303;53.266;10.410;2023-05-24T05:13:38;23.10;;;7.00;;
10509;SDS011;5303;53.266;10.410;2023-05-24T05:16:04;21.20;;;6.90;;
10509;SDS011;5303;53.266;10.410;2023-05-24T05:18:29;26.70;;;7.43;;
10509;SDS011;5303;53.266;10.410;2023-05-24T05:20:55;25.60;;;7.33;;
10509;SDS011;5303;53.266;10.410;2023-05-24T05:23:21;34.03;;;7.53;;
10509;SDS011;5303;53.266;10.410;2023-05-24T05:25:46;27.80;;;7.60;;
10509;SDS011;5303;53.266;10.410;2023-05-24T05:28:11;26.27;;;7.90;;
10509;SDS011;5303;53.266;10.410;2023-05-24T05:30:36;25.77;;;7.20;;
10509;SDS011;5303;53.266;10.410;2023-05-24T05:33:02;25.63;;;7.73;;
10509;SDS011;5303;53.266;10.410;2023-05-24T05:35:29;27.63;;;7.97;;
10509;SDS011;5303;53.266;10.410;2023-05-24T05:37:55;24.97;;;7.73;;
10509;SDS011;5303;53.266;10.410;2023-05-24T05:40:20;27.37;;;7.93;;
10509;SDS011;5303;53.266;10.410;2023-05-24T05:42:45;26.10;;;8.00;;
10509;SDS011;5303;53.266;10.410;2023-05-24T05:45:11;28.00;;;6.93;;
10509;SDS011;5303;53.266;10.410;2023-05-24T05:47:36;28.03;;;8.70;;
10509;SDS011;5303;53.266;10.410;2023-05-24T05:50:02;23.67;;;7.20;;
10509;SDS011;5303;53.266;10.410;2023-05-24T05:52:27;18.53;;;6.13;;
10509;SDS011;5303;53.266;10.410;2023-05-24T05:54:52;21.30;;;7.13;;
10509;SDS011;5303;53.266;10.410;2023-05-24T05:57:18;20.80;;;5.90;;
10509;SDS011;5303;53.266;10.410;2023-05-24T05:59:48;24.37;;;6.90;;
10509;SDS011;5303;53.266;10.410;2023-05-24T06:02:13;25.23;;;7.10;;
10509;SDS011;5303;53.266;10.410;2023-05-24T06:04:38;19.77;;;6.80;;
10509;SDS011;5303;53.266;10.410;2023-05-24T06:07:04;24.63;;;6.60;;
10509;SDS011;5303;53.266;10.410;2023-05-24T06:09:29;23.40;;;7.37;;
10509;SDS011;5303;53.266;10.410;2023-05-24T06:11:54;23.57;;;7.17;;
10509;SDS011;5303;53.266;10.410;2023-05-24T06:14:20;21.80;;;7.03;;
10509;SDS011;5303;53.266;10.410;2023-05-24T06:16:46;20.60;;;7.10;;
10509;SDS011;5303;53.266;10.410;2023-05-24T06:19:11;24.30;;;6.43;;
10509;SDS011;5303;53.266;10.410;2023-05-24T06:21:37;23.70;;;6.83;;
10509;SDS011;5303;53.266;10.410;2023-05-24T06:24:05;23.20;;;7.00;;
10509;SDS011;5303;53.266;10.410;2023-05-24T06:26:33;21.70;;;6.50;;
10509;SDS011;5303;53.266;10.410;2023-05-24T06:29:00;21.17;;;6.87;;
10509;SDS011;5303;53.266;10.410;2023-05-24T06:31:26;26.93;;;7.27;;
10509;SDS011;5303;53.266;10.410;2023-05-24T06:33:51;24.77;;;6.10;;
10509;SDS011;5303;53.266;10.410;2023-05-24T06:36:16;30.47;;;7.07;;
10509;SDS011;5303;53.266;10.410;2023-05-24T06:38:42;15.33;;;6.63;;
10509;SDS011;5303;53.266;10.410;2023-05-24T06:41:07;20.00;;;6.40;;
10509;SDS011;5303;53.266;10.410;2023-05-24T06:43:32;17.90;;;5.93;;
10509;SDS011;5303;53.266;10.410;2023-05-24T06:45:58;22.87;;;6.63;;
10509;SDS011;5303;53.266;10.410;2023-05-24T06:48:23;20.10;;;6.57;;
10509;SDS011;5303;53.266;10.410;2023-05-24T06:50:50;19.07;;;6.50;;
10509;SDS011;5303;53.266;10.410;2023-05-24T06:53:15;22.93;;;6.63;;
10509;SDS011;5303;53.266;10.410;2023-05-24T06:55:41;21.60;;;6.37;;
10509;SDS011;5303;53.266;10.410;2023-05-24T06:58:06;24.17;;;6.30;;
10509;SDS011;5303;53.266;10.410;2023-05-24T07:00:31;19.90;;;6.07;;
10509;SDS011;5303;53.266;10.410;2023-05-24T07:02:56;20.80;;;6.00;;
10509;SDS011;5303;53.266;10.410;2023-05-24T07:05:22;14.10;;;6.43;;
10509;SDS011;5303;53.266;10.410;2023-05-24T07:07:47;21.53;;;6.93;;
10509;SDS011;5303;53.266;10.410;2023-05-24T07:10:12;24.97;;;6.57;;
10509;SDS011;5303;53.266;10.410;2023-05-24T07:12:38;31.27;;;7.83;;
10509;SDS011;5303;53.266;10.410;2023-05-24T07:15:04;19.70;;;6.40;;
10509;SDS011;5303;53.266;10.410;2023-05-24T07:17:31;21.47;;;6.70;;
10509;SDS011;5303;53.266;10.410;2023-05-24T07:19:56;21.67;;;6.70;;
10509;SDS011;5303;53.266;10.410;2023-05-24T07:22:21;21.37;;;6.73;;
10509;SDS011;5303;53.266;10.410;2023-05-24T07:24:49;24.00;;;7.10;;
10509;SDS011;5303;53.266;10.410;2023-05-24T07:27:14;18.43;;;6.97;;
10509;SDS011;5303;53.266;10.410;2023-05-24T07:29:39;16.80;;;7.27;;
10509;SDS011;5303;53.266;10.410;2023-05-24T07:32:05;21.53;;;6.93;;
10509;SDS011;5303;53.266;10.410;2023-05-24T07:34:31;21.13;;;7.10;;
10509;SDS011;5303;53.266;10.410;2023-05-24T07:36:56;22.63;;;7.40;;
10509;SDS011;5303;53.266;10.410;2023-05-24T07:39:24;21.30;;;7.70;;
10509;SDS011;5303;53.266;10.410;2023-05-24T07:41:51;23.53;;;6.63;;
10509;SDS011;5303;53.266;10.410;2023-05-24T07:44:17;17.50;;;6.93;;
10509;SDS011;5303;53.266;10.410;2023-05-24T07:46:43;19.17;;;7.30;;
10509;SDS011;5303;53.266;10.410;2023-05-24T07:49:09;20.83;;;6.70;;
10509;SDS011;5303;53.266;10.410;2023-05-24T07:51:35;19.87;;;7.50;;
10509;SDS011;5303;53.266;10.410;2023-05-24T07:54:00;16.77;;;6.97;;
10509;SDS011;5303;53.266;10.410;2023-05-24T07:56:26;19.63;;;7.20;;
10509;SDS011;5303;53.266;10.410;2023-05-24T07:58:51;20.53;;;7.23;;
10509;SDS011;5303;53.266;10.410;2023-05-24T08:01:20;16.93;;;7.63;;
10509;SDS011;5303;53.266;10.410;2023-05-24T08:03:46;17.87;;;6.67;;
10509;SDS011;5303;53.266;10.410;2023-05-24T08:06:12;15.40;;;6.80;;
10509;SDS011;5303;53.266;10.410;2023-05-24T08:08:37;14.70;;;6.43;;
10509;SDS011;5303;53.266;10.410;2023-05-24T08:11:04;15.70;;;6.03;;
10509;SDS011;5303;53.266;10.410;2023-05-24T08:13:29;15.23;;;6.30;;
10509;SDS011;5303;53.266;10.410;2023-05-24T08:15:55;22.33;;;6.97;;
10509;SDS011;5303;53.266;10.410;2023-05-24T08:18:22;16.90;;;6.73;;
10509;SDS011;5303;53.266;10.410;2023-05-24T08:20:47;17.60;;;6.70;;
10509;SDS011;5303;53.266;10.410;2023-05-24T08:23:12;18.13;;;6.03;;
10509;SDS011;5303;53.266;10.410;2023-05-24T08:25:37;18.93;;;7.03;;
10509;SDS011;5303;53.266;10.410;2023-05-24T08:28:03;16.60;;;6.43;;
10509;SDS011;5303;53.266;10.410;2023-05-24T08:30:29;17.03;;;6.33;;
10509;SDS011;5303;53.266;10.410;2023-05-24T08:32:54;22.10;;;6.83;;
10509;SDS011;5303;53.266;10.410;2023-05-24T08:35:19;19.03;;;7.00;;
10509;SDS011;5303;53.266;10.410;2023-05-24T08:37:45;20.07;;;7.07;;
10509;SDS011;5303;53.266;10.410;2023-05-24T08:40:11;18.70;;;7.37;;
10509;SDS011;5303;53.266;10.410;2023-05-24T08:42:37;19.10;;;7.50;;
10509;SDS011;5303;53.266;10.410;2023-05-24T08:45:06;15.60;;;6.67;;
10509;SDS011;5303;53.266;10.410;2023-05-24T08:47:35;18.63;;;7.13;;
10509;SDS011;5303;53.266;10.410;2023-05-24T08:50:01;23.33;;;6.90;;
10509;SDS011;5303;53.266;10.410;2023-05-24T08:52:26;18.73;;;7.50;;
10509;SDS011;5303;53.266;10.410;2023-05-24T08:54:53;19.57;;;7.57;;
10509;SDS011;5303;53.266;10.410;2023-05-24T08:57:19;17.97;;;7.37;;
10509;SDS011;5303;53.266;10.410;2023-05-24T08:59:46;20.53;;;7.83;;
10509;SDS011;5303;53.266;10.410;2023-05-24T09:02:12;19.43;;;7.70;;
10509;SDS011;5303;53.266;10.410;2023-05-24T09:04:38;16.80;;;6.87;;
10509;SDS011;5303;53.266;10.410;2023-05-24T09:07:08;19.13;;;7.23;;
10509;SDS011;5303;53.266;10.410;2023-05-24T09:09:36;17.33;;;7.20;;
10509;SDS011;5303;53.266;10.410;2023-05-24T09:12:10;19.50;;;7.70;;
10509;SDS011;5303;53.266;10.410;2023-05-24T09:14:43;18.90;;;7.17;;
10509;SDS011;5303;53.266;10.410;2023-05-24T09:17:11;17.53;;;7.43;;
10509;SDS011;5303;53.266;10.410;2023-05-24T09:19:39;18.73;;;7.23;;
10509;SDS011;5303;53.266;10.410;2023-05-24T09:22:11;23.03;;;7.90;;
10509;SDS011;5303;53.266;10.410;2023-05-24T09:24:46;12.97;;;6.53;;
10509;SDS011;5303;53.266;10.410;2023-05-24T09:27:13;17.73;;;7.27;;
10509;SDS011;5303;53.266;10.410;2023-05-24T09:29:43;19.83;;;7.43;;
10509;SDS011;5303;53.266;10.410;2023-05-24T09:32:10;15.90;;;6.73;;
10509;SDS011;5303;53.266;10.410;2023-05-24T09:34:40;15.90;;;7.03;;
10509;SDS011;5303;53.266;10.410;2023-05-24T09:37:11;14.30;;;6.63;;
10509;SDS011;5303;53.266;10.410;2023-05-24T09:39:40;18.80;;;7.90;;
10509;SDS011;5303;53.266;10.410;2023-05-24T09:42:06;31.30;;;8.73;;
10509;SDS011;5303;53.266;10.410;2023-05-24T09:44:31;16.33;;;7.93;;
10509;SDS011;5303;53.266;10.410;2023-05-24T09:47:00;23.33;;;8.27;;
10509;SDS011;5303;53.266;10.410;2023-05-24T09:49:28;19.03;;;8.07;;
10509;SDS011;5303;53.266;10.410;2023-05-24T09:51:54;18.00;;;7.70;;
10509;SDS011;5303;53.266;10.410;2023-05-24T09:54:20;22.60;;;9.07;;
10509;SDS011;5303;53.266;10.410;2023-05-24T09:56:45;22.17;;;8.83;;
10509;SDS011;5303;53.266;10.410;2023-05-24T09:59:11;19.67;;;8.10;;
10509;SDS011;5303;53.266;10.410;2023-05-24T10:01:37;15.27;;;8.30;;
10509;SDS011;5303;53.266;10.410;2023-05-24T10:04:03;22.93;;;9.33;;
10509;SDS011;5303;53.266;10.410;2023-05-24T10:06:31;21.03;;;9.27;;
10509;SDS011;5303;53.266;10.410;2023-05-24T10:09:01;23.87;;;9.53;;
10509;SDS011;5303;53.266;10.410;2023-05-24T10:11:29;22.80;;;9.27;;
10509;SDS011;5303;53.266;10.410;2023-05-24T10:13:56;25.30;;;10.13;;
10509;SDS011;5303;53.266;10.410;2023-05-24T10:16:23;21.97;;;9.57;;
10509;SDS011;5303;53.266;10.410;2023-05-24T10:18:49;24.83;;;8.97;;
10509;SDS011;5303;53.266;10.410;2023-05-24T10:21:14;19.67;;;9.23;;
10509;SDS011;5303;53.266;10.410;2023-05-24T10:23:43;21.75;;;10.05;;
10509;SDS011;5303;53.266;10.410;2023-05-24T10:26:15;25.00;;;10.23;;
10509;SDS011;5303;53.266;10.410;2023-05-24T10:28:45;24.90;;;9.43;;
10509;SDS011;5303;53.266;10.410;2023-05-24T10:31:17;21.77;;;9.50;;
10509;SDS011;5303;53.266;10.410;2023-05-24T10:33:52;25.07;;;8.93;;
10509;SDS011;5303;53.266;10.410;2023-05-24T10:36:20;16.53;;;8.67;;
10509;SDS011;5303;53.266;10.410;2023-05-24T10:38:46;26.70;;;10.03;;
10509;SDS011;5303;53.266;10.410;2023-05-24T10:41:12;28.03;;;8.87;;
10509;SDS011;5303;53.266;10.410;2023-05-24T10:43:38;22.63;;;9.30;;
10509;SDS011;5303;53.266;10.410;2023-05-24T10:46:04;21.87;;;8.37;;
10509;SDS011;5303;53.266;10.410;2023-05-24T10:48:41;24.83;;;9.30;;
10509;SDS011;5303;53.266;10.410;2023-05-24T10:54:12;19.00;;;7.70;;
10509;SDS011;5303;53.266;10.410;2023-05-24T10:56:46;18.53;;;8.10;;
10509;SDS011;5303;53.266;10.410;2023-05-24T10:59:22;20.33;;;7.97;;
10509;SDS011;5303;53.266;10.410;2023-05-24T11:01:55;17.43;;;7.67;;
10509;SDS011;5303;53.266;10.410;2023-05-24T11:04:24;20.60;;;8.00;;
10509;SDS011;5303;53.266;10.410;2023-05-24T11:06:59;22.47;;;7.73;;
10509;SDS011;5303;53.266;10.410;2023-05-24T11:09:27;18.57;;;8.03;;
10509;SDS011;5303;53.266;10.410;2023-05-24T11:11:56;18.10;;;7.93;;
10509;SDS011;5303;53.266;10.410;2023-05-24T11:14:28;17.17;;;7.07;;
10509;SDS011;5303;53.266;10.410;2023-05-24T11:16:54;17.50;;;7.03;;
10509;SDS011;5303;53.266;10.410;2023-05-24T11:19:23;23.30;;;7.70;;
10509;SDS011;5303;53.266;10.410;2023-05-24T11:21:55;18.37;;;7.07;;
10509;SDS011;5303;53.266;10.410;2023-05-24T11:24:24;16.53;;;7.10;;
10509;SDS011;5303;53.266;10.410;2023-05-24T11:26:50;12.80;;;5.77;;
10509;SDS011;5303;53.266;10.410;2023-05-24T11:29:16;16.20;;;5.83;;
10509;SDS011;5303;53.266;10.410;2023-05-24T11:31:48;15.43;;;6.23;;
10509;SDS011;5303;53.266;10.410;2023-05-24T11:34:17;17.23;;;6.70;;
10509;SDS011;5303;53.266;10.410;2023-05-24T11:36:43;16.67;;;6.83;;
10509;SDS011;5303;53.266;10.410;2023-05-24T11:39:10;18.87;;;6.87;;
10509;SDS011;5303;53.266;10.410;2023-05-24T11:41:36;19.17;;;7.10;;
10509;SDS011;5303;53.266;10.410;2023-05-24T11:44:02;15.37;;;7.10;;
10509;SDS011;5303;53.266;10.410;2023-05-24T11:46:30;14.40;;;5.83;;
10509;SDS011;5303;53.266;10.410;2023-05-24T11:48:56;14.17;;;6.50;;
10509;SDS011;5303;53.266;10.410;2023-05-24T11:51:28;17.23;;;6.40;;
10509;SDS011;5303;53.266;10.410;2023-05-24T11:53:55;15.70;;;6.03;;
10509;SDS011;5303;53.266;10.410;2023-05-24T11:56:21;14.43;;;6.10;;
10509;SDS011;5303;53.266;10.410;2023-05-24T11:58:47;17.27;;;5.70;;
10509;SDS011;5303;53.266;10.410;2023-05-24T12:01:21;10.93;;;5.93;;
10509;SDS011;5303;53.266;10.410;2023-05-24T12:03:48;15.37;;;5.97;;
10509;SDS011;5303;53.266;10.410;2023-05-24T12:06:13;14.30;;;5.47;;
10509;SDS011;5303;53.266;10.410;2023-05-24T12:08:38;13.23;;;5.63;;
10509;SDS011;5303;53.266;10.410;2023-05-24T12:11:04;11.70;;;5.90;;
10509;SDS011;5303;53.266;10.410;2023-05-24T12:13:29;14.00;;;6.17;;
10509;SDS011;5303;53.266;10.410;2023-05-24T12:15:54;15.90;;;6.00;;
10509;SDS011;5303;53.266;10.410;2023-05-24T12:18:20;12.50;;;5.93;;
10509;SDS011;5303;53.266;10.410;2023-05-24T12:20:47;13.60;;;5.70;;
10509;SDS011;5303;53.266;10.410;2023-05-24T12:23:13;9.87;;;5.70;;
10509;SDS011;5303;53.266;10.410;2023-05-24T12:25:39;17.37;;;6.47;;
10509;SDS011;5303;53.266;10.410;2023-05-24T12:28:04;12.23;;;5.30;;
10509;SDS011;5303;53.266;10.410;2023-05-24T12:30:30;12.17;;;5.63;;
10509;SDS011;5303;53.266;10.410;2023-05-24T12:32:55;10.53;;;5.00;;
10509;SDS011;5303;53.266;10.410;2023-05-24T12:35:21;14.00;;;5.40;;
10509;SDS011;5303;53.266;10.410;2023-05-24T12:37:46;14.17;;;5.70;;
10509;SDS011;5303;53.266;10.410;2023-05-24T12:40:20;12.50;;;5.37;;
10509;SDS011;5303;53.266;10.410;2023-05-24T12:42:49;12.60;;;4.93;;
10509;SDS011;5303;53.266;10.410;2023-05-24T12:45:16;14.47;;;5.60;;
10509;SDS011;5303;53.266;10.410;2023-05-24T12:47:46;12.13;;;4.73;;
10509;SDS011;5303;53.266;10.410;2023-05-24T12:50:15;13.30;;;4.90;;
10509;SDS011;5303;53.266;10.410;2023-05-24T12:52:45;10.60;;;5.43;;
10509;SDS011;5303;53.266;10.410;2023-05-24T12:55:11;13.63;;;5.30;;
10509;SDS011;5303;53.266;10.410;2023-05-24T12:57:37;10.80;;;4.90;;
10509;SDS011;5303;53.266;10.410;2023-05-24T13:00:03;10.50;;;5.37;;
10509;SDS011;5303;53.266;10.410;2023-05-24T13:02:29;15.77;;;5.73;;
10509;SDS011;5303;53.266;10.410;2023-05-24T13:04:55;12.67;;;5.30;;
10509;SDS011;5303;53.266;10.410;2023-05-24T13:07:20;16.10;;;5.60;;
10509;SDS011;5303;53.266;10.410;2023-05-24T13:09:45;11.70;;;5.33;;
10509;SDS011;5303;53.266;10.410;2023-05-24T13:12:11;11.80;;;5.07;;
10509;SDS011;5303;53.266;10.410;2023-05-24T13:14:36;11.67;;;5.27;;
10509;SDS011;5303;53.266;10.410;2023-05-24T13:17:01;15.40;;;6.17;;
10509;SDS011;5303;53.266;10.410;2023-05-24T13:19:27;13.83;;;5.73;;
10509;SDS011;5303;53.266;10.410;2023-05-24T13:21:52;11.83;;;5.63;;
10509;SDS011;5303;53.266;10.410;2023-05-24T13:24:18;17.87;;;6.13;;
10509;SDS011;5303;53.266;10.410;2023-05-24T13:26:44;12.67;;;6.07;;
10509;SDS011;5303;53.266;10.410;2023-05-24T13:29:09;15.33;;;6.07;;
10509;SDS011;5303;53.266;10.410;2023-05-24T13:31:35;16.70;;;5.57;;
10509;SDS011;5303;53.266;10.410;2023-05-24T13:34:04;11.43;;;4.97;;
10509;SDS011;5303;53.266;10.410;2023-05-24T13:36:30;12.77;;;4.73;;
10509;SDS011;5303;53.266;10.410;2023-05-24T13:38:56;13.57;;;6.20;;
10509;SDS011;5303;53.266;10.410;2023-05-24T13:41:22;12.93;;;5.77;;
10509;SDS011;5303;53.266;10.410;2023-05-24T13:43:48;15.50;;;6.37;;
10509;SDS011;5303;53.266;10.410;2023-05-24T13:46:14;16.90;;;6.70;;
10509;SDS011;5303;53.266;10.410;2023-05-24T13:48:39;16.20;;;6.70;;
10509;SDS011;5303;53.266;10.410;2023-05-24T13:51:05;19.27;;;6.73;;
10509;SDS011;5303;53.266;10.410;2023-05-24T13:53:30;19.97;;;6.77;;
10509;SDS011;5303;53.266;10.410;2023-05-24T13:55:55;15.23;;;6.27;;
10509;SDS011;5303;53.266;10.410;2023-05-24T13:58:21;18.67;;;6.77;;
10509;SDS011;5303;53.266;10.410;2023-05-24T14:00:46;17.40;;;7.30;;
10509;SDS011;5303;53.266;10.410;2023-05-24T14:03:11;17.90;;;7.30;;
10509;SDS011;5303;53.266;10.410;2023-05-24T14:05:37;15.13;;;6.10;;
10509;SDS011;5303;53.266;10.410;2023-05-24T14:08:04;17.83;;;6.93;;
10509;SDS011;5303;53.266;10.410;2023-05-24T14:10:31;14.30;;;6.77;;
10509;SDS011;5303;53.266;10.410;2023-05-24T14:12:58;19.07;;;7.13;;
10509;SDS011;5303;53.266;10.410;2023-05-24T14:15:24;15.17;;;6.57;;
10509;SDS011;5303;53.266;10.410;2023-05-24T14:17:50;15.50;;;6.83;;
10509;SDS011;5303;53.266;10.410;2023-05-24T14:20:15;13.63;;;6.60;;
10509;SDS011;5303;53.266;10.410;2023-05-24T14:22:41;14.20;;;6.43;;
10509;SDS011;5303;53.266;10.410;2023-05-24T14:25:06;14.73;;;6.93;;
10509;SDS011;5303;53.266;10.410;2023-05-24T14:27:32;12.20;;;5.67;;
10509;SDS011;5303;53.266;10.410;2023-05-24T14:29:57;19.47;;;6.60;;
10509;SDS011;5303;53.266;10.410;2023-05-24T14:32:22;14.97;;;6.23;;
10509;SDS011;5303;53.266;10.410;2023-05-24T14:34:47;13.17;;;6.50;;
10509;SDS011;5303;53.266;10.410;2023-05-24T14:37:13;17.33;;;6.67;;
10509;SDS011;5303;53.266;10.410;2023-05-24T14:39:38;15.83;;;6.67;;
10509;SDS011;5303;53.266;10.410;2023-05-24T14:42:03;16.13;;;6.77;;
10509;SDS011;5303;53.266;10.410;2023-05-24T14:44:29;14.50;;;6.00;;
10509;SDS011;5303;53.266;10.410;2023-05-24T14:46:54;15.73;;;6.63;;
10509;SDS011;5303;53.266;10.410;2023-05-24T14:49:20;14.03;;;5.93;;
10509;SDS011;5303;53.266;10.410;2023-05-24T14:51:46;15.17;;;5.97;;